sensor_id;sensor_type;location;lat;lon;timestamp;P1;durP1;ratioP1;P2;durP2;ratioP2
73863;SDS011;62200;52.062;5.292;2022-08-21T00:00:48;4.93;;;2.40;;
73863;SDS011;62200;52.062;5.292;2022-08-21T00:03:13;3.58;;;2.20;;
73863;SDS011;62200;52.062;5.292;2022-08-21T00:05:41;7.38;;;2.90;;
73863;SDS011;62200;52.062;5.292;2022-08-21T00:08:10;5.32;;;2.30;;
73863;SDS011;62200;52.062;5.292;2022-08-21T00:10:35;4.40;;;2.40;;
73863;SDS011;62200;52.062;5.292;2022-08-21T00:13:01;5.85;;;2.75;;
73863;SDS011;62200;52.062;5.292;2022-08-21T00:15:29;5.25;;;2.38;;
73863;SDS011;62200;52.062;5.292;2022-08-21T00:18:00;4.00;;;2.30;;
73863;SDS011;62200;52.062;5.292;2022-08-21T00:20:26;5.15;;;2.70;;
73863;SDS011;62200;52.062;5.292;2022-08-21T00:22:51;4.45;;;2.30;;
73863;SDS011;62200;52.062;5.292;2022-08-21T00:25:18;5.75;;;2.67;;
73863;SDS011;62200;52.062;5.292;2022-08-21T00:27:44;6.97;;;2.83;;
73863;SDS011;62200;52.062;5.292;2022-08-21T00:30:12;6.47;;;2.90;;
73863;SDS011;62200;52.062;5.292;2022-08-21T00:32:39;6.05;;;2.45;;
73863;SDS011;62200;52.062;5.292;2022-08-21T00:35:06;6.20;;;2.40;;
73863;SDS011;62200;52.062;5.292;2022-08-21T00:37:33;4.63;;;2.45;;
73863;SDS011;62200;52.062;5.292;2022-08-21T00:39:58;5.93;;;2.47;;
73863;SDS011;62200;52.062;5.292;2022-08-21T00:42:24;6.68;;;2.20;;
73863;SDS011;62200;52.062;5.292;2022-08-21T00:44:50;6.50;;;2.53;;
73863;SDS011;62200;52.062;5.292;2022-08-21T00:47:16;4.57;;;2.72;;
73863;SDS011;62200;52.062;5.292;2022-08-21T00:49:42;6.25;;;3.55;;
73863;SDS011;62200;52.062;5.292;2022-08-21T00:52:09;6.18;;;3.33;;
73863;SDS011;62200;52.062;5.292;2022-08-21T00:54:39;5.63;;;3.08;;
73863;SDS011;62200;52.062;5.292;2022-08-21T00:57:13;4.88;;;2.70;;
73863;SDS011;62200;52.062;5.292;2022-08-21T00:59:48;6.38;;;2.83;;
73863;SDS011;62200;52.062;5.292;2022-08-21T01:02:16;5.43;;;2.47;;
73863;SDS011;62200;52.062;5.292;2022-08-21T01:04:42;5.78;;;2.85;;
73863;SDS011;62200;52.062;5.292;2022-08-21T01:07:08;6.30;;;2.80;;
73863;SDS011;62200;52.062;5.292;2022-08-21T01:09:34;5.18;;;2.60;;
73863;SDS011;62200;52.062;5.292;2022-08-21T01:12:00;6.32;;;2.75;;
73863;SDS011;62200;52.062;5.292;2022-08-21T01:14:26;4.28;;;2.55;;
73863;SDS011;62200;52.062;5.292;2022-08-21T01:16:53;7.93;;;3.13;;
73863;SDS011;62200;52.062;5.292;2022-08-21T01:19:21;7.75;;;2.88;;
73863;SDS011;62200;52.062;5.292;2022-08-21T01:21:46;7.10;;;2.80;;
73863;SDS011;62200;52.062;5.292;2022-08-21T01:24:12;6.05;;;2.63;;
73863;SDS011;62200;52.062;5.292;2022-08-21T01:26:39;5.10;;;2.65;;
73863;SDS011;62200;52.062;5.292;2022-08-21T01:29:16;7.15;;;2.88;;
73863;SDS011;62200;52.062;5.292;2022-08-21T01:31:51;7.88;;;2.55;;
73863;SDS011;62200;52.062;5.292;2022-08-21T01:34:17;6.25;;;2.45;;
73863;SDS011;62200;52.062;5.292;2022-08-21T01:36:43;5.28;;;2.85;;
73863;SDS011;62200;52.062;5.292;2022-08-21T01:39:11;7.05;;;2.90;;
73863;SDS011;62200;52.062;5.292;2022-08-21T01:41:36;4.53;;;2.72;;
73863;SDS011;62200;52.062;5.292;2022-08-21T01:44:02;4.88;;;3.05;;
73863;SDS011;62200;52.062;5.292;2022-08-21T01:46:28;5.22;;;2.85;;
73863;SDS011;62200;52.062;5.292;2022-08-21T01:48:53;4.88;;;2.88;;
73863;SDS011;62200;52.062;5.292;2022-08-21T01:51:18;5.65;;;3.30;;
73863;SDS011;62200;52.062;5.292;2022-08-21T01:53:44;8.52;;;2.72;;
73863;SDS011;62200;52.062;5.292;2022-08-21T01:56:10;4.50;;;2.70;;
73863;SDS011;62200;52.062;5.292;2022-08-21T01:58:37;4.43;;;2.38;;
73863;SDS011;62200;52.062;5.292;2022-08-21T02:01:04;4.55;;;2.70;;
73863;SDS011;62200;52.062;5.292;2022-08-21T02:03:30;4.85;;;2.78;;
73863;SDS011;62200;52.062;5.292;2022-08-21T02:05:55;7.15;;;2.75;;
73863;SDS011;62200;52.062;5.292;2022-08-21T02:08:22;7.53;;;2.90;;
73863;SDS011;62200;52.062;5.292;2022-08-21T02:10:48;6.03;;;2.67;;
73863;SDS011;62200;52.062;5.292;2022-08-21T02:13:14;7.07;;;2.97;;
73863;SDS011;62200;52.062;5.292;2022-08-21T02:15:40;4.60;;;2.65;;
73863;SDS011;62200;52.062;5.292;2022-08-21T02:18:05;7.60;;;3.47;;
73863;SDS011;62200;52.062;5.292;2022-08-21T02:20:42;6.43;;;2.97;;
73863;SDS011;62200;52.062;5.292;2022-08-21T02:23:10;4.43;;;2.80;;
73863;SDS011;62200;52.062;5.292;2022-08-21T02:25:37;6.28;;;2.20;;
73863;SDS011;62200;52.062;5.292;2022-08-21T02:28:04;5.07;;;3.15;;
73863;SDS011;62200;52.062;5.292;2022-08-21T02:30:33;5.68;;;2.47;;
73863;SDS011;62200;52.062;5.292;2022-08-21T02:33:03;7.60;;;3.70;;
73863;SDS011;62200;52.062;5.292;2022-08-21T02:35:29;5.22;;;2.75;;
73863;SDS011;62200;52.062;5.292;2022-08-21T02:37:57;14.95;;;3.35;;
73863;SDS011;62200;52.062;5.292;2022-08-21T02:40:26;6.18;;;3.20;;
73863;SDS011;62200;52.062;5.292;2022-08-21T02:42:55;7.13;;;2.90;;
73863;SDS011;62200;52.062;5.292;2022-08-21T02:45:22;8.60;;;3.25;;
73863;SDS011;62200;52.062;5.292;2022-08-21T02:47:51;6.65;;;3.17;;
73863;SDS011;62200;52.062;5.292;2022-08-21T02:50:20;6.65;;;3.45;;
73863;SDS011;62200;52.062;5.292;2022-08-21T02:52:47;6.90;;;3.60;;
73863;SDS011;62200;52.062;5.292;2022-08-21T02:55:14;6.65;;;2.97;;
73863;SDS011;62200;52.062;5.292;2022-08-21T02:57:40;10.90;;;4.43;;
73863;SDS011;62200;52.062;5.292;2022-08-21T03:00:05;8.15;;;3.42;;
73863;SDS011;62200;52.062;5.292;2022-08-21T03:02:32;9.00;;;3.30;;
73863;SDS011;62200;52.062;5.292;2022-08-21T03:04:59;7.43;;;3.00;;
73863;SDS011;62200;52.062;5.292;2022-08-21T03:07:25;5.57;;;3.15;;
73863;SDS011;62200;52.062;5.292;2022-08-21T03:09:51;7.05;;;3.05;;
73863;SDS011;62200;52.062;5.292;2022-08-21T03:12:16;7.90;;;3.22;;
73863;SDS011;62200;52.062;5.292;2022-08-21T03:14:42;6.38;;;3.03;;
73863;SDS011;62200;52.062;5.292;2022-08-21T03:17:07;6.67;;;2.93;;
73863;SDS011;62200;52.062;5.292;2022-08-21T03:19:32;5.13;;;2.70;;
73863;SDS011;62200;52.062;5.292;2022-08-21T03:21:58;7.67;;;3.13;;
73863;SDS011;62200;52.062;5.292;2022-08-21T03:24:23;6.78;;;3.00;;
73863;SDS011;62200;52.062;5.292;2022-08-21T03:26:49;7.18;;;3.40;;
73863;SDS011;62200;52.062;5.292;2022-08-21T03:29:14;5.38;;;3.13;;
73863;SDS011;62200;52.062;5.292;2022-08-21T03:31:40;6.72;;;3.10;;
73863;SDS011;62200;52.062;5.292;2022-08-21T03:34:05;7.47;;;3.75;;
73863;SDS011;62200;52.062;5.292;2022-08-21T03:36:30;7.57;;;3.53;;
73863;SDS011;62200;52.062;5.292;2022-08-21T03:38:56;5.32;;;3.38;;
73863;SDS011;62200;52.062;5.292;2022-08-21T03:41:21;7.70;;;3.28;;
73863;SDS011;62200;52.062;5.292;2022-08-21T03:43:47;8.75;;;3.55;;
73863;SDS011;62200;52.062;5.292;2022-08-21T03:46:12;6.40;;;4.30;;
73863;SDS011;62200;52.062;5.292;2022-08-21T03:48:38;7.40;;;3.58;;
73863;SDS011;62200;52.062;5.292;2022-08-21T03:51:04;7.57;;;3.55;;
73863;SDS011;62200;52.062;5.292;2022-08-21T03:53:31;8.55;;;4.60;;
73863;SDS011;62200;52.062;5.292;2022-08-21T03:55:57;6.97;;;3.80;;
73863;SDS011;62200;52.062;5.292;2022-08-21T03:58:23;7.10;;;3.80;;
73863;SDS011;62200;52.062;5.292;2022-08-21T04:00:52;6.35;;;3.75;;
73863;SDS011;62200;52.062;5.292;2022-08-21T04:03:19;6.28;;;3.38;;
73863;SDS011;62200;52.062;5.292;2022-08-21T04:05:44;9.23;;;3.38;;
73863;SDS011;62200;52.062;5.292;2022-08-21T04:08:11;7.32;;;4.15;;
73863;SDS011;62200;52.062;5.292;2022-08-21T04:10:37;7.15;;;4.05;;
73863;SDS011;62200;52.062;5.292;2022-08-21T04:13:04;8.82;;;4.10;;
73863;SDS011;62200;52.062;5.292;2022-08-21T04:15:30;9.55;;;3.60;;
73863;SDS011;62200;52.062;5.292;2022-08-21T04:17:55;5.57;;;3.03;;
73863;SDS011;62200;52.062;5.292;2022-08-21T04:20:20;7.95;;;3.63;;
73863;SDS011;62200;52.062;5.292;2022-08-21T04:22:46;9.85;;;5.05;;
73863;SDS011;62200;52.062;5.292;2022-08-21T04:25:13;6.68;;;4.00;;
73863;SDS011;62200;52.062;5.292;2022-08-21T04:27:39;5.75;;;3.58;;
73863;SDS011;62200;52.062;5.292;2022-08-21T04:30:06;7.70;;;4.15;;
73863;SDS011;62200;52.062;5.292;2022-08-21T04:32:33;6.43;;;4.63;;
73863;SDS011;62200;52.062;5.292;2022-08-21T04:35:00;9.40;;;3.50;;
73863;SDS011;62200;52.062;5.292;2022-08-21T04:37:29;6.68;;;4.25;;
73863;SDS011;62200;52.062;5.292;2022-08-21T04:39:55;7.70;;;3.97;;
73863;SDS011;62200;52.062;5.292;2022-08-21T04:42:23;5.60;;;3.60;;
73863;SDS011;62200;52.062;5.292;2022-08-21T04:44:52;8.02;;;4.20;;
73863;SDS011;62200;52.062;5.292;2022-08-21T04:47:22;6.25;;;3.50;;
73863;SDS011;62200;52.062;5.292;2022-08-21T04:49:48;7.88;;;3.90;;
73863;SDS011;62200;52.062;5.292;2022-08-21T04:52:15;10.57;;;3.95;;
73863;SDS011;62200;52.062;5.292;2022-08-21T04:54:44;8.15;;;4.07;;
73863;SDS011;62200;52.062;5.292;2022-08-21T04:57:10;9.18;;;4.13;;
73863;SDS011;62200;52.062;5.292;2022-08-21T04:59:42;7.43;;;3.72;;
73863;SDS011;62200;52.062;5.292;2022-08-21T05:02:10;7.13;;;3.63;;
73863;SDS011;62200;52.062;5.292;2022-08-21T05:04:39;8.60;;;4.15;;
73863;SDS011;62200;52.062;5.292;2022-08-21T05:07:10;9.80;;;4.13;;
73863;SDS011;62200;52.062;5.292;2022-08-21T05:09:39;8.75;;;4.47;;
73863;SDS011;62200;52.062;5.292;2022-08-21T05:12:05;8.13;;;4.30;;
73863;SDS011;62200;52.062;5.292;2022-08-21T05:14:31;9.35;;;4.10;;
73863;SDS011;62200;52.062;5.292;2022-08-21T05:16:57;10.95;;;4.63;;
73863;SDS011;62200;52.062;5.292;2022-08-21T05:19:22;10.15;;;4.40;;
73863;SDS011;62200;52.062;5.292;2022-08-21T05:21:48;10.35;;;4.50;;
73863;SDS011;62200;52.062;5.292;2022-08-21T05:24:14;9.65;;;4.78;;
73863;SDS011;62200;52.062;5.292;2022-08-21T05:26:41;7.22;;;4.00;;
73863;SDS011;62200;52.062;5.292;2022-08-21T05:29:06;9.35;;;4.72;;
73863;SDS011;62200;52.062;5.292;2022-08-21T05:31:32;11.20;;;4.90;;
73863;SDS011;62200;52.062;5.292;2022-08-21T05:33:58;10.35;;;4.07;;
73863;SDS011;62200;52.062;5.292;2022-08-21T05:36:23;8.13;;;3.97;;
73863;SDS011;62200;52.062;5.292;2022-08-21T05:38:49;8.43;;;4.32;;
73863;SDS011;62200;52.062;5.292;2022-08-21T05:41:14;9.95;;;4.65;;
73863;SDS011;62200;52.062;5.292;2022-08-21T05:43:39;13.55;;;5.47;;
73863;SDS011;62200;52.062;5.292;2022-08-21T05:46:05;11.80;;;4.53;;
73863;SDS011;62200;52.062;5.292;2022-08-21T05:48:32;13.45;;;5.78;;
73863;SDS011;62200;52.062;5.292;2022-08-21T05:51:03;11.52;;;5.63;;
73863;SDS011;62200;52.062;5.292;2022-08-21T05:53:34;15.50;;;7.50;;
73863;SDS011;62200;52.062;5.292;2022-08-21T05:56:00;13.27;;;8.13;;
73863;SDS011;62200;52.062;5.292;2022-08-21T05:58:28;17.65;;;7.70;;
73863;SDS011;62200;52.062;5.292;2022-08-21T06:00:54;15.20;;;7.65;;
73863;SDS011;62200;52.062;5.292;2022-08-21T06:03:21;17.08;;;8.23;;
73863;SDS011;62200;52.062;5.292;2022-08-21T06:05:49;21.83;;;9.35;;
73863;SDS011;62200;52.062;5.292;2022-08-21T06:08:16;17.85;;;8.63;;
73863;SDS011;62200;52.062;5.292;2022-08-21T06:10:42;21.45;;;8.43;;
73863;SDS011;62200;52.062;5.292;2022-08-21T06:13:08;17.42;;;8.80;;
73863;SDS011;62200;52.062;5.292;2022-08-21T06:15:33;18.08;;;7.82;;
73863;SDS011;62200;52.062;5.292;2022-08-21T06:17:59;17.13;;;7.15;;
73863;SDS011;62200;52.062;5.292;2022-08-21T06:20:25;13.68;;;7.22;;
73863;SDS011;62200;52.062;5.292;2022-08-21T06:22:50;16.65;;;6.60;;
73863;SDS011;62200;52.062;5.292;2022-08-21T06:25:16;18.17;;;7.47;;
73863;SDS011;62200;52.062;5.292;2022-08-21T06:27:41;17.17;;;7.60;;
73863;SDS011;62200;52.062;5.292;2022-08-21T06:30:07;14.48;;;6.78;;
73863;SDS011;62200;52.062;5.292;2022-08-21T06:32:34;16.23;;;6.82;;
73863;SDS011;62200;52.062;5.292;2022-08-21T06:34:59;14.02;;;7.57;;
73863;SDS011;62200;52.062;5.292;2022-08-21T06:37:25;12.60;;;7.35;;
73863;SDS011;62200;52.062;5.292;2022-08-21T06:39:50;17.75;;;6.72;;
73863;SDS011;62200;52.062;5.292;2022-08-21T06:42:16;12.13;;;5.80;;
73863;SDS011;62200;52.062;5.292;2022-08-21T06:44:42;16.77;;;7.13;;
73863;SDS011;62200;52.062;5.292;2022-08-21T06:47:08;13.15;;;6.13;;
73863;SDS011;62200;52.062;5.292;2022-08-21T06:49:33;19.08;;;7.25;;
73863;SDS011;62200;52.062;5.292;2022-08-21T06:51:59;12.10;;;6.90;;
73863;SDS011;62200;52.062;5.292;2022-08-21T06:54:25;12.10;;;6.50;;
73863;SDS011;62200;52.062;5.292;2022-08-21T06:56:50;13.07;;;6.38;;
73863;SDS011;62200;52.062;5.292;2022-08-21T06:59:15;12.40;;;6.07;;
73863;SDS011;62200;52.062;5.292;2022-08-21T07:01:41;18.23;;;6.65;;
73863;SDS011;62200;52.062;5.292;2022-08-21T07:04:06;14.23;;;7.55;;
73863;SDS011;62200;52.062;5.292;2022-08-21T07:06:32;13.73;;;6.82;;
73863;SDS011;62200;52.062;5.292;2022-08-21T07:08:58;13.70;;;6.18;;
73863;SDS011;62200;52.062;5.292;2022-08-21T07:11:23;16.65;;;6.35;;
73863;SDS011;62200;52.062;5.292;2022-08-21T07:13:50;14.32;;;5.80;;
73863;SDS011;62200;52.062;5.292;2022-08-21T07:16:17;13.55;;;5.60;;
73863;SDS011;62200;52.062;5.292;2022-08-21T07:18:43;12.77;;;6.00;;
73863;SDS011;62200;52.062;5.292;2022-08-21T07:21:09;13.20;;;6.28;;
73863;SDS011;62200;52.062;5.292;2022-08-21T07:23:37;13.52;;;5.72;;
73863;SDS011;62200;52.062;5.292;2022-08-21T07:26:05;13.57;;;5.70;;
73863;SDS011;62200;52.062;5.292;2022-08-21T07:28:31;14.75;;;6.65;;
73863;SDS011;62200;52.062;5.292;2022-08-21T07:30:58;14.52;;;6.18;;
73863;SDS011;62200;52.062;5.292;2022-08-21T07:33:25;15.55;;;7.50;;
73863;SDS011;62200;52.062;5.292;2022-08-21T07:35:51;16.85;;;7.60;;
73863;SDS011;62200;52.062;5.292;2022-08-21T07:38:17;14.13;;;6.28;;
73863;SDS011;62200;52.062;5.292;2022-08-21T07:40:44;13.13;;;5.07;;
73863;SDS011;62200;52.062;5.292;2022-08-21T07:43:10;16.50;;;6.13;;
73863;SDS011;62200;52.062;5.292;2022-08-21T07:45:36;17.63;;;6.63;;
73863;SDS011;62200;52.062;5.292;2022-08-21T07:48:02;13.00;;;5.32;;
73863;SDS011;62200;52.062;5.292;2022-08-21T07:50:28;13.27;;;5.45;;
73863;SDS011;62200;52.062;5.292;2022-08-21T07:52:53;14.95;;;6.43;;
73863;SDS011;62200;52.062;5.292;2022-08-21T07:55:19;15.55;;;6.40;;
73863;SDS011;62200;52.062;5.292;2022-08-21T07:57:46;11.80;;;6.25;;
73863;SDS011;62200;52.062;5.292;2022-08-21T08:00:14;15.70;;;5.13;;
73863;SDS011;62200;52.062;5.292;2022-08-21T08:02:43;11.23;;;6.20;;
73863;SDS011;62200;52.062;5.292;2022-08-21T08:05:10;13.75;;;5.70;;
73863;SDS011;62200;52.062;5.292;2022-08-21T08:07:36;13.50;;;5.07;;
73863;SDS011;62200;52.062;5.292;2022-08-21T08:10:03;12.77;;;5.22;;
73863;SDS011;62200;52.062;5.292;2022-08-21T08:12:30;13.93;;;6.22;;
73863;SDS011;62200;52.062;5.292;2022-08-21T08:14:56;12.75;;;5.47;;
73863;SDS011;62200;52.062;5.292;2022-08-21T08:17:22;10.35;;;4.63;;
73863;SDS011;62200;52.062;5.292;2022-08-21T08:19:48;13.20;;;5.43;;
73863;SDS011;62200;52.062;5.292;2022-08-21T08:22:15;16.70;;;5.72;;
73863;SDS011;62200;52.062;5.292;2022-08-21T08:24:44;13.63;;;5.03;;
73863;SDS011;62200;52.062;5.292;2022-08-21T08:27:09;13.60;;;4.72;;
73863;SDS011;62200;52.062;5.292;2022-08-21T08:29:35;14.07;;;4.97;;
73863;SDS011;62200;52.062;5.292;2022-08-21T08:32:01;13.18;;;4.57;;
73863;SDS011;62200;52.062;5.292;2022-08-21T08:34:27;10.68;;;4.82;;
73863;SDS011;62200;52.062;5.292;2022-08-21T08:36:52;11.60;;;4.95;;
73863;SDS011;62200;52.062;5.292;2022-08-21T08:39:18;9.15;;;4.22;;
73863;SDS011;62200;52.062;5.292;2022-08-21T08:41:43;14.18;;;4.78;;
73863;SDS011;62200;52.062;5.292;2022-08-21T08:44:12;16.17;;;4.22;;
73863;SDS011;62200;52.062;5.292;2022-08-21T08:46:39;13.00;;;4.80;;
73863;SDS011;62200;52.062;5.292;2022-08-21T08:49:14;12.27;;;4.55;;
73863;SDS011;62200;52.062;5.292;2022-08-21T08:52:00;8.48;;;3.85;;
73863;SDS011;62200;52.062;5.292;2022-08-21T08:54:31;9.90;;;4.10;;
73863;SDS011;62200;52.062;5.292;2022-08-21T08:57:10;10.65;;;4.53;;
73863;SDS011;62200;52.062;5.292;2022-08-21T08:59:41;10.50;;;4.13;;
73863;SDS011;62200;52.062;5.292;2022-08-21T09:02:11;11.00;;;3.88;;
73863;SDS011;62200;52.062;5.292;2022-08-21T09:04:38;13.27;;;4.45;;
73863;SDS011;62200;52.062;5.292;2022-08-21T09:10:11;9.40;;;3.50;;
73863;SDS011;62200;52.062;5.292;2022-08-21T09:12:59;9.10;;;3.50;;
73863;SDS011;62200;52.062;5.292;2022-08-21T09:15:53;10.13;;;2.88;;
73863;SDS011;62200;52.062;5.292;2022-08-21T09:18:42;9.48;;;3.20;;
73863;SDS011;62200;52.062;5.292;2022-08-21T09:26:22;12.70;;;3.40;;
73863;SDS011;62200;52.062;5.292;2022-08-21T09:28:56;7.80;;;3.03;;
73863;SDS011;62200;52.062;5.292;2022-08-21T09:31:33;8.40;;;3.10;;
73863;SDS011;62200;52.062;5.292;2022-08-21T09:34:05;7.25;;;2.80;;
73863;SDS011;62200;52.062;5.292;2022-08-21T09:36:44;11.27;;;2.70;;
73863;SDS011;62200;52.062;5.292;2022-08-21T09:39:22;11.90;;;2.70;;
73863;SDS011;62200;52.062;5.292;2022-08-21T09:41:57;10.50;;;3.03;;
73863;SDS011;62200;52.062;5.292;2022-08-21T09:44:33;8.65;;;2.70;;
73863;SDS011;62200;52.062;5.292;2022-08-21T09:47:04;8.90;;;2.78;;
73863;SDS011;62200;52.062;5.292;2022-08-21T09:49:30;9.57;;;3.22;;
73863;SDS011;62200;52.062;5.292;2022-08-21T09:54:32;9.80;;;2.53;;
73863;SDS011;62200;52.062;5.292;2022-08-21T09:57:05;10.90;;;3.38;;
73863;SDS011;62200;52.062;5.292;2022-08-21T10:02:47;8.95;;;2.70;;
73863;SDS011;62200;52.062;5.292;2022-08-21T10:07:52;8.70;;;3.13;;
73863;SDS011;62200;52.062;5.292;2022-08-21T10:10:21;8.55;;;2.60;;
73863;SDS011;62200;52.062;5.292;2022-08-21T10:12:59;7.15;;;2.08;;
73863;SDS011;62200;52.062;5.292;2022-08-21T10:15:45;6.65;;;2.42;;
73863;SDS011;62200;52.062;5.292;2022-08-21T10:18:39;7.38;;;2.33;;
73863;SDS011;62200;52.062;5.292;2022-08-21T10:21:17;9.50;;;2.60;;
73863;SDS011;62200;52.062;5.292;2022-08-21T10:24:03;7.00;;;2.65;;
73863;SDS011;62200;52.062;5.292;2022-08-21T10:34:56;7.15;;;2.10;;
73863;SDS011;62200;52.062;5.292;2022-08-21T10:37:35;7.25;;;2.05;;
73863;SDS011;62200;52.062;5.292;2022-08-21T10:48:06;6.60;;;1.70;;
73863;SDS011;62200;52.062;5.292;2022-08-21T10:55:33;4.55;;;1.70;;
73863;SDS011;62200;52.062;5.292;2022-08-21T10:58:08;7.75;;;2.22;;
73863;SDS011;62200;52.062;5.292;2022-08-21T11:06:11;6.35;;;2.65;;
73863;SDS011;62200;52.062;5.292;2022-08-21T11:08:41;15.02;;;2.65;;
73863;SDS011;62200;52.062;5.292;2022-08-21T11:11:24;6.22;;;1.95;;
73863;SDS011;62200;52.062;5.292;2022-08-21T11:16:45;12.10;;;2.05;;
73863;SDS011;62200;52.062;5.292;2022-08-21T11:19:24;6.18;;;1.42;;
73863;SDS011;62200;52.062;5.292;2022-08-21T11:21:58;4.47;;;1.45;;
73863;SDS011;62200;52.062;5.292;2022-08-21T11:24:49;10.50;;;2.00;;
73863;SDS011;62200;52.062;5.292;2022-08-21T11:30:19;3.95;;;1.38;;
73863;SDS011;62200;52.062;5.292;2022-08-21T11:35:54;5.25;;;1.67;;
73863;SDS011;62200;52.062;5.292;2022-08-21T11:38:35;3.92;;;1.63;;
73863;SDS011;62200;52.062;5.292;2022-08-21T11:41:13;6.78;;;1.83;;
73863;SDS011;62200;52.062;5.292;2022-08-21T11:43:48;5.72;;;2.03;;
73863;SDS011;62200;52.062;5.292;2022-08-21T11:57:07;6.80;;;2.10;;
73863;SDS011;62200;52.062;5.292;2022-08-21T11:59:45;8.10;;;2.35;;
73863;SDS011;62200;52.062;5.292;2022-08-21T12:02:15;5.68;;;1.73;;
73863;SDS011;62200;52.062;5.292;2022-08-21T12:04:44;4.57;;;1.80;;
73863;SDS011;62200;52.062;5.292;2022-08-21T12:07:32;8.82;;;2.20;;
73863;SDS011;62200;52.062;5.292;2022-08-21T12:10:00;6.63;;;1.80;;
73863;SDS011;62200;52.062;5.292;2022-08-21T12:12:29;7.75;;;1.63;;
73863;SDS011;62200;52.062;5.292;2022-08-21T12:22:52;5.18;;;1.77;;
73863;SDS011;62200;52.062;5.292;2022-08-21T12:25:20;5.43;;;1.55;;
73863;SDS011;62200;52.062;5.292;2022-08-21T12:27:49;6.68;;;1.80;;
73863;SDS011;62200;52.062;5.292;2022-08-21T12:33:06;4.78;;;1.58;;
73863;SDS011;62200;52.062;5.292;2022-08-21T12:35:45;5.18;;;1.70;;
73863;SDS011;62200;52.062;5.292;2022-08-21T12:38:15;5.18;;;2.00;;
73863;SDS011;62200;52.062;5.292;2022-08-21T12:43:20;7.25;;;1.55;;
73863;SDS011;62200;52.062;5.292;2022-08-21T12:45:55;6.57;;;1.58;;
73863;SDS011;62200;52.062;5.292;2022-08-21T12:48:42;4.55;;;1.50;;
73863;SDS011;62200;52.062;5.292;2022-08-21T12:51:17;6.45;;;1.40;;
73863;SDS011;62200;52.062;5.292;2022-08-21T12:53:52;4.38;;;1.35;;
73863;SDS011;62200;52.062;5.292;2022-08-21T12:56:20;7.07;;;1.15;;
73863;SDS011;62200;52.062;5.292;2022-08-21T12:59:00;6.88;;;1.40;;
73863;SDS011;62200;52.062;5.292;2022-08-21T13:01:30;7.47;;;1.73;;
73863;SDS011;62200;52.062;5.292;2022-08-21T13:04:02;7.07;;;1.10;;
73863;SDS011;62200;52.062;5.292;2022-08-21T13:09:06;5.80;;;1.10;;
73863;SDS011;62200;52.062;5.292;2022-08-21T13:11:35;6.85;;;1.27;;
73863;SDS011;62200;52.062;5.292;2022-08-21T13:14:02;3.55;;;1.58;;
73863;SDS011;62200;52.062;5.292;2022-08-21T13:16:28;6.53;;;1.77;;
73863;SDS011;62200;52.062;5.292;2022-08-21T13:19:03;5.47;;;1.30;;
73863;SDS011;62200;52.062;5.292;2022-08-21T13:21:33;6.18;;;1.85;;
73863;SDS011;62200;52.062;5.292;2022-08-21T13:24:08;5.63;;;1.65;;
73863;SDS011;62200;52.062;5.292;2022-08-21T13:26:35;3.88;;;1.40;;
73863;SDS011;62200;52.062;5.292;2022-08-21T13:29:06;6.50;;;2.03;;
73863;SDS011;62200;52.062;5.292;2022-08-21T13:31:36;5.57;;;1.73;;
73863;SDS011;62200;52.062;5.292;2022-08-21T13:34:02;7.97;;;1.60;;
73863;SDS011;62200;52.062;5.292;2022-08-21T13:36:29;7.65;;;1.80;;
73863;SDS011;62200;52.062;5.292;2022-08-21T13:38:59;4.78;;;1.48;;
73863;SDS011;62200;52.062;5.292;2022-08-21T13:41:27;7.53;;;2.10;;
73863;SDS011;62200;52.062;5.292;2022-08-21T13:43:57;6.07;;;1.63;;
73863;SDS011;62200;52.062;5.292;2022-08-21T13:46:26;4.20;;;1.70;;
73863;SDS011;62200;52.062;5.292;2022-08-21T13:48:55;4.43;;;1.67;;
73863;SDS011;62200;52.062;5.292;2022-08-21T13:51:21;6.28;;;1.73;;
73863;SDS011;62200;52.062;5.292;2022-08-21T13:53:48;5.55;;;1.75;;
73863;SDS011;62200;52.062;5.292;2022-08-21T13:59:05;4.90;;;1.65;;
73863;SDS011;62200;52.062;5.292;2022-08-21T14:04:14;7.50;;;1.67;;
73863;SDS011;62200;52.062;5.292;2022-08-21T14:06:44;4.93;;;1.50;;
73863;SDS011;62200;52.062;5.292;2022-08-21T14:09:10;4.97;;;1.63;;
73863;SDS011;62200;52.062;5.292;2022-08-21T14:11:57;8.18;;;1.83;;
73863;SDS011;62200;52.062;5.292;2022-08-21T14:14:29;5.13;;;1.30;;
73863;SDS011;62200;52.062;5.292;2022-08-21T14:17:07;4.93;;;1.25;;
73863;SDS011;62200;52.062;5.292;2022-08-21T14:19:45;4.93;;;1.45;;
73863;SDS011;62200;52.062;5.292;2022-08-21T14:27:30;6.55;;;1.85;;
73863;SDS011;62200;52.062;5.292;2022-08-21T14:29:58;5.22;;;1.55;;
73863;SDS011;62200;52.062;5.292;2022-08-21T14:32:36;7.22;;;1.63;;
73863;SDS011;62200;52.062;5.292;2022-08-21T14:37:30;5.63;;;1.40;;
73863;SDS011;62200;52.062;5.292;2022-08-21T14:39:56;6.03;;;1.50;;
73863;SDS011;62200;52.062;5.292;2022-08-21T14:42:22;4.53;;;1.42;;
73863;SDS011;62200;52.062;5.292;2022-08-21T14:44:48;5.00;;;1.30;;
73863;SDS011;62200;52.062;5.292;2022-08-21T14:47:14;7.82;;;1.50;;
73863;SDS011;62200;52.062;5.292;2022-08-21T14:49:40;3.17;;;1.10;;
73863;SDS011;62200;52.062;5.292;2022-08-21T14:52:05;4.65;;;1.48;;
73863;SDS011;62200;52.062;5.292;2022-08-21T14:54:31;5.63;;;1.50;;
73863;SDS011;62200;52.062;5.292;2022-08-21T14:57:07;6.25;;;1.38;;
73863;SDS011;62200;52.062;5.292;2022-08-21T14:59:35;4.80;;;1.35;;
73863;SDS011;62200;52.062;5.292;2022-08-21T15:02:01;6.60;;;1.30;;
73863;SDS011;62200;52.062;5.292;2022-08-21T15:04:29;6.13;;;1.67;;
73863;SDS011;62200;52.062;5.292;2022-08-21T15:06:54;7.13;;;1.50;;
73863;SDS011;62200;52.062;5.292;2022-08-21T15:09:19;12.48;;;2.15;;
73863;SDS011;62200;52.062;5.292;2022-08-21T15:11:45;6.93;;;1.80;;
73863;SDS011;62200;52.062;5.292;2022-08-21T15:14:11;5.53;;;1.60;;
73863;SDS011;62200;52.062;5.292;2022-08-21T15:16:43;6.85;;;1.35;;
73863;SDS011;62200;52.062;5.292;2022-08-21T15:19:08;6.65;;;1.58;;
73863;SDS011;62200;52.062;5.292;2022-08-21T15:21:34;5.80;;;1.90;;
73863;SDS011;62200;52.062;5.292;2022-08-21T15:23:59;6.07;;;1.75;;
73863;SDS011;62200;52.062;5.292;2022-08-21T15:26:24;5.50;;;1.88;;
73863;SDS011;62200;52.062;5.292;2022-08-21T15:28:50;5.03;;;1.58;;
73863;SDS011;62200;52.062;5.292;2022-08-21T15:31:15;4.80;;;1.80;;
73863;SDS011;62200;52.062;5.292;2022-08-21T15:33:41;5.97;;;1.35;;
73863;SDS011;62200;52.062;5.292;2022-08-21T15:36:06;7.13;;;1.70;;
73863;SDS011;62200;52.062;5.292;2022-08-21T15:38:32;5.38;;;1.35;;
73863;SDS011;62200;52.062;5.292;2022-08-21T15:40:57;5.53;;;1.40;;
73863;SDS011;62200;52.062;5.292;2022-08-21T15:43:26;4.20;;;1.20;;
73863;SDS011;62200;52.062;5.292;2022-08-21T15:45:54;7.65;;;1.70;;
73863;SDS011;62200;52.062;5.292;2022-08-21T15:48:20;5.25;;;1.58;;
73863;SDS011;62200;52.062;5.292;2022-08-21T15:50:46;6.07;;;1.58;;
73863;SDS011;62200;52.062;5.292;2022-08-21T15:53:12;4.93;;;1.25;;
73863;SDS011;62200;52.062;5.292;2022-08-21T15:55:37;5.32;;;1.48;;
73863;SDS011;62200;52.062;5.292;2022-08-21T15:58:04;9.00;;;1.83;;
73863;SDS011;62200;52.062;5.292;2022-08-21T16:00:30;6.65;;;1.48;;
73863;SDS011;62200;52.062;5.292;2022-08-21T16:02:59;5.72;;;1.60;;
73863;SDS011;62200;52.062;5.292;2022-08-21T16:05:25;7.88;;;1.55;;
73863;SDS011;62200;52.062;5.292;2022-08-21T16:07:51;7.65;;;1.50;;
73863;SDS011;62200;52.062;5.292;2022-08-21T16:10:19;4.90;;;1.23;;
73863;SDS011;62200;52.062;5.292;2022-08-21T16:12:50;5.18;;;1.20;;
73863;SDS011;62200;52.062;5.292;2022-08-21T16:15:22;3.70;;;1.30;;
73863;SDS011;62200;52.062;5.292;2022-08-21T16:17:48;4.13;;;1.13;;
73863;SDS011;62200;52.062;5.292;2022-08-21T16:20:17;7.10;;;1.40;;
73863;SDS011;62200;52.062;5.292;2022-08-21T16:22:46;7.75;;;1.52;;